sensor_id;sensor_type;location;lat;lon;timestamp;pressure;altitude;pressure_sealevel;temperature;humidity
73692;BME280;61996;49.910;35.562;2023-01-16T00:02:55;99679.31;;;20.24;34.92
73692;BME280;61996;49.910;35.562;2023-01-16T00:05:58;99681.28;;;20.22;35.09
73692;BME280;61996;49.910;35.562;2023-01-16T00:09:01;99679.75;;;20.20;35.08
73692;BME280;61996;49.910;35.562;2023-01-16T00:12:06;99674.00;;;20.15;35.55
73692;BME280;61996;49.910;35.562;2023-01-16T00:15:09;99671.88;;;20.18;35.25
73692;BME280;61996;49.910;35.562;2023-01-16T00:18:11;99676.41;;;20.18;35.24
73692;BME280;61996;49.910;35.562;2023-01-16T00:21:14;99666.13;;;20.13;35.11
73692;BME280;61996;49.910;35.562;2023-01-16T00:24:17;99669.22;;;20.18;35.31
73692;BME280;61996;49.910;35.562;2023-01-16T00:27:21;99671.06;;;20.18;35.07
73692;BME280;61996;49.910;35.562;2023-01-16T00:30:24;99664.31;;;20.14;35.10
73692;BME280;61996;49.910;35.562;2023-01-16T00:33:27;99657.13;;;20.14;34.92
73692;BME280;61996;49.910;35.562;2023-01-16T00:36:30;99657.28;;;20.13;34.76
73692;BME280;61996;49.910;35.562;2023-01-16T00:39:32;99659.13;;;20.12;35.23
73692;BME280;61996;49.910;35.562;2023-01-16T00:42:36;99652.94;;;20.12;35.18
73692;BME280;61996;49.910;35.562;2023-01-16T00:45:39;99654.06;;;20.09;35.11
73692;BME280;61996;49.910;35.562;2023-01-16T00:48:42;99655.06;;;20.08;34.88
73692;BME280;61996;49.910;35.562;2023-01-16T00:51:45;99646.91;;;20.10;34.97
73692;BME280;61996;49.910;35.562;2023-01-16T00:54:48;99650.44;;;20.10;34.83
73692;BME280;61996;49.910;35.562;2023-01-16T00:57:52;99642.53;;;20.09;35.06
73692;BME280;61996;49.910;35.562;2023-01-16T01:00:55;99642.00;;;20.05;35.20
73692;BME280;61996;49.910;35.562;2023-01-16T01:03:58;99641.00;;;20.06;35.17
73692;BME280;61996;49.910;35.562;2023-01-16T01:07:00;99637.50;;;20.06;34.91
73692;BME280;61996;49.910;35.562;2023-01-16T01:10:03;99634.69;;;20.07;34.98
73692;BME280;61996;49.910;35.562;2023-01-16T01:13:08;99631.31;;;20.05;34.87
73692;BME280;61996;49.910;35.562;2023-01-16T01:16:10;99635.69;;;20.06;34.90
73692;BME280;61996;49.910;35.562;2023-01-16T01:19:14;99631.59;;;20.02;35.05
73692;BME280;61996;49.910;35.562;2023-01-16T01:22:17;99635.69;;;20.06;35.00
73692;BME280;61996;49.910;35.562;2023-01-16T01:25:20;99629.50;;;20.06;34.80
73692;BME280;61996;49.910;35.562;2023-01-16T01:28:24;99626.25;;;20.02;35.12
73692;BME280;61996;49.910;35.562;2023-01-16T01:31:26;99615.31;;;20.05;34.93
73692;BME280;61996;49.910;35.562;2023-01-16T01:34:29;99613.63;;;20.04;34.97
73692;BME280;61996;49.910;35.562;2023-01-16T01:37:34;99611.09;;;20.03;34.94
73692;BME280;61996;49.910;35.562;2023-01-16T01:40:37;99601.28;;;20.03;35.02
73692;BME280;61996;49.910;35.562;2023-01-16T01:43:43;99603.94;;;20.03;34.84
73692;BME280;61996;49.910;35.562;2023-01-16T01:46:46;99610.13;;;20.04;34.60
73692;BME280;61996;49.910;35.562;2023-01-16T01:49:49;99597.06;;;20.01;34.82
73692;BME280;61996;49.910;35.562;2023-01-16T01:52:52;99607.31;;;19.95;34.95
73692;BME280;61996;49.910;35.562;2023-01-16T01:55:56;99605.81;;;19.93;34.98
73692;BME280;61996;49.910;35.562;2023-01-16T01:59:02;99612.44;;;19.89;34.91
73692;BME280;61996;49.910;35.562;2023-01-16T02:02:09;99603.88;;;19.85;35.04
73692;BME280;61996;49.910;35.562;2023-01-16T02:05:14;99606.69;;;19.84;35.08
73692;BME280;61996;49.910;35.562;2023-01-16T02:08:21;99607.53;;;19.84;35.04
73692;BME280;61996;49.910;35.562;2023-01-16T02:11:30;99601.03;;;19.87;34.94
73692;BME280;61996;49.910;35.562;2023-01-16T02:14:35;99597.69;;;19.85;35.15
73692;BME280;61996;49.910;35.562;2023-01-16T02:17:42;99595.72;;;19.87;35.18
73692;BME280;61996;49.910;35.562;2023-01-16T02:21:05;99593.19;;;19.85;35.04
73692;BME280;61996;49.910;35.562;2023-01-16T02:24:22;99591.34;;;19.86;34.94
73692;BME280;61996;49.910;35.562;2023-01-16T02:27:36;99596.44;;;19.89;35.07
73692;BME280;61996;49.910;35.562;2023-01-16T02:34:15;99591.22;;;19.87;34.89
73692;BME280;61996;49.910;35.562;2023-01-16T02:37:24;99597.63;;;19.94;35.12
73692;BME280;61996;49.910;35.562;2023-01-16T02:40:32;99585.75;;;19.89;34.94
73692;BME280;61996;49.910;35.562;2023-01-16T02:43:40;99590.38;;;19.87;35.02
73692;BME280;61996;49.910;35.562;2023-01-16T02:46:47;99588.41;;;19.89;35.15
73692;BME280;61996;49.910;35.562;2023-01-16T02:49:59;99585.03;;;19.87;34.96
73692;BME280;61996;49.910;35.562;2023-01-16T02:53:06;99584.44;;;19.93;34.91
73692;BME280;61996;49.910;35.562;2023-01-16T02:56:15;99589.53;;;19.86;34.98
73692;BME280;61996;49.910;35.562;2023-01-16T02:59:20;99578.59;;;19.89;34.93
73692;BME280;61996;49.910;35.562;2023-01-16T03:02:25;99581.78;;;19.93;34.86
73692;BME280;61996;49.910;35.562;2023-01-16T03:05:31;99592.88;;;19.88;35.05
73692;BME280;61996;49.910;35.562;2023-01-16T03:08:39;99592.59;;;19.91;35.10
73692;BME280;61996;49.910;35.562;2023-01-16T03:11:47;99589.63;;;19.94;34.78
73692;BME280;61996;49.910;35.562;2023-01-16T03:14:55;99588.94;;;19.92;35.04
73692;BME280;61996;49.910;35.562;2023-01-16T03:18:03;99595.28;;;19.91;34.97
73692;BME280;61996;49.910;35.562;2023-01-16T03:21:12;99586.13;;;19.94;34.91
73692;BME280;61996;49.910;35.562;2023-01-16T03:24:20;99591.09;;;19.89;34.93
73692;BME280;61996;49.910;35.562;2023-01-16T03:27:30;99597.78;;;19.93;34.83
73692;BME280;61996;49.910;35.562;2023-01-16T03:30:37;99588.94;;;19.92;34.97
73692;BME280;61996;49.910;35.562;2023-01-16T03:33:46;99593.75;;;19.89;35.06
73692;BME280;61996;49.910;35.562;2023-01-16T03:37:01;99584.75;;;19.90;34.85
73692;BME280;61996;49.910;35.562;2023-01-16T03:40:07;99584.75;;;19.90;34.96
73692;BME280;61996;49.910;35.562;2023-01-16T03:43:12;99578.59;;;19.89;34.90
73692;BME280;61996;49.910;35.562;2023-01-16T03:46:16;99579.25;;;19.91;34.92
73692;BME280;61996;49.910;35.562;2023-01-16T03:49:20;99577.88;;;19.87;34.86
73692;BME280;61996;49.910;35.562;2023-01-16T03:52:26;99583.06;;;19.89;34.93
73692;BME280;61996;49.910;35.562;2023-01-16T03:55:35;99577.44;;;19.92;34.92
73692;BME280;61996;49.910;35.562;2023-01-16T03:58:39;99582.22;;;19.88;34.93
73692;BME280;61996;49.910;35.562;2023-01-16T04:01:45;99590.09;;;19.90;34.87
73692;BME280;61996;49.910;35.562;2023-01-16T04:04:51;99586.84;;;19.96;34.92
73692;BME280;61996;49.910;35.562;2023-01-16T04:07:58;99589.16;;;20.09;34.52
73692;BME280;61996;49.910;35.562;2023-01-16T04:11:02;99595.31;;;20.09;34.61
73692;BME280;61996;49.910;35.562;2023-01-16T04:14:05;99597.63;;;20.04;34.82
73692;BME280;61996;49.910;35.562;2023-01-16T04:17:10;99590.09;;;20.17;34.83
73692;BME280;61996;49.910;35.562;2023-01-16T04:20:13;99595.38;;;19.99;34.88
73692;BME280;61996;49.910;35.562;2023-01-16T04:23:17;99587.28;;;19.91;34.99
73692;BME280;61996;49.910;35.562;2023-01-16T04:26:20;99572.69;;;19.86;35.07
73692;BME280;61996;49.910;35.562;2023-01-16T04:29:22;99571.09;;;19.93;34.96
73692;BME280;61996;49.910;35.562;2023-01-16T04:32:25;99571.44;;;19.80;35.18
73692;BME280;61996;49.910;35.562;2023-01-16T04:35:28;99575.53;;;19.75;35.50
73692;BME280;61996;49.910;35.562;2023-01-16T04:38:33;99571.06;;;19.75;35.53
73692;BME280;61996;49.910;35.562;2023-01-16T04:41:35;99565.00;;;19.73;35.56
73692;BME280;61996;49.910;35.562;2023-01-16T04:44:38;99564.31;;;19.71;35.67
73692;BME280;61996;49.910;35.562;2023-01-16T04:47:44;99561.94;;;19.68;35.63
73692;BME280;61996;49.910;35.562;2023-01-16T04:50:47;99557.72;;;19.65;35.72
73692;BME280;61996;49.910;35.562;2023-01-16T04:53:51;99557.31;;;19.60;35.66
73692;BME280;61996;49.910;35.562;2023-01-16T04:56:54;99558.56;;;19.56;35.89
73692;BME280;61996;49.910;35.562;2023-01-16T04:59:57;99555.22;;;19.54;35.78
73692;BME280;61996;49.910;35.562;2023-01-16T05:03:00;99559.56;;;19.45;36.02
73692;BME280;61996;49.910;35.562;2023-01-16T05:06:03;99563.09;;;19.46;35.99
73692;BME280;61996;49.910;35.562;2023-01-16T05:09:07;99569.56;;;19.43;35.96
73692;BME280;61996;49.910;35.562;2023-01-16T05:12:10;99567.31;;;19.39;36.04
73692;BME280;61996;49.910;35.562;2023-01-16T05:15:13;99564.66;;;19.39;36.15
73692;BME280;61996;49.910;35.562;2023-01-16T05:18:15;99568.72;;;19.43;36.10
73692;BME280;61996;49.910;35.562;2023-01-16T05:21:18;99561.13;;;19.48;35.99
73692;BME280;61996;49.910;35.562;2023-01-16T05:24:22;99555.22;;;19.54;36.09
73692;BME280;61996;49.910;35.562;2023-01-16T05:27:26;99549.19;;;19.62;35.79
73692;BME280;61996;49.910;35.562;2023-01-16T05:30:28;99551.72;;;19.63;35.91
73692;BME280;61996;49.910;35.562;2023-01-16T05:33:31;99547.88;;;19.76;35.70
73692;BME280;61996;49.910;35.562;2023-01-16T05:36:34;99548.25;;;19.81;35.39
73692;BME280;61996;49.910;35.562;2023-01-16T05:39:38;99545.50;;;20.00;35.62
73692;BME280;61996;49.910;35.562;2023-01-16T05:42:41;99543.50;;;20.02;35.31
73692;BME280;61996;49.910;35.562;2023-01-16T05:45:44;99545.00;;;20.14;35.95
73692;BME280;61996;49.910;35.562;2023-01-16T05:48:47;99547.91;;;20.21;35.61
73692;BME280;61996;49.910;35.562;2023-01-16T05:51:50;99545.47;;;20.10;35.88
73692;BME280;61996;49.910;35.562;2023-01-16T05:54:54;99555.09;;;20.20;35.47
73692;BME280;61996;49.910;35.562;2023-01-16T05:57:57;99556.84;;;20.12;35.84
73692;BME280;61996;49.910;35.562;2023-01-16T06:01:00;99549.94;;;20.09;35.85
73692;BME280;61996;49.910;35.562;2023-01-16T06:04:02;99550.81;;;20.10;35.86
73692;BME280;61996;49.910;35.562;2023-01-16T06:07:08;99561.69;;;20.16;35.45
73692;BME280;61996;49.910;35.562;2023-01-16T06:10:12;99554.50;;;20.26;35.82
73692;BME280;61996;49.910;35.562;2023-01-16T06:13:16;99560.34;;;20.30;35.80
73692;BME280;61996;49.910;35.562;2023-01-16T06:16:19;99552.59;;;20.37;35.77
73692;BME280;61996;49.910;35.562;2023-01-16T06:19:24;99550.44;;;20.22;35.77
73692;BME280;61996;49.910;35.562;2023-01-16T06:22:27;99551.13;;;20.24;35.48
73692;BME280;61996;49.910;35.562;2023-01-16T06:25:31;99540.59;;;20.23;35.58
73692;BME280;61996;49.910;35.562;2023-01-16T06:28:34;99537.56;;;20.18;35.65
73692;BME280;61996;49.910;35.562;2023-01-16T06:31:36;99532.72;;;20.21;35.54
73692;BME280;61996;49.910;35.562;2023-01-16T06:34:39;99541.75;;;20.20;35.77
73692;BME280;61996;49.910;35.562;2023-01-16T06:37:42;99540.97;;;20.28;35.43
73692;BME280;61996;49.910;35.562;2023-01-16T06:40:46;99541.31;;;20.43;35.40
73692;BME280;61996;49.910;35.562;2023-01-16T06:43:49;99542.06;;;20.35;35.28
73692;BME280;61996;49.910;35.562;2023-01-16T06:46:52;99542.13;;;20.25;35.31
73692;BME280;61996;49.910;35.562;2023-01-16T06:49:55;99543.50;;;20.30;35.50
73692;BME280;61996;49.910;35.562;2023-01-16T06:52:57;99539.72;;;20.32;35.55
73692;BME280;61996;49.910;35.562;2023-01-16T06:56:02;99538.88;;;20.32;35.54
73692;BME280;61996;49.910;35.562;2023-01-16T06:59:05;99542.22;;;20.34;35.45
73692;BME280;61996;49.910;35.562;2023-01-16T07:02:08;99544.97;;;20.42;35.44
73692;BME280;61996;49.910;35.562;2023-01-16T07:05:10;99534.72;;;20.37;35.54
73692;BME280;61996;49.910;35.562;2023-01-16T07:08:14;99538.78;;;20.41;35.30
73692;BME280;61996;49.910;35.562;2023-01-16T07:11:18;99542.06;;;20.45;35.55
73692;BME280;61996;49.910;35.562;2023-01-16T07:14:21;99549.47;;;20.41;35.48
73692;BME280;61996;49.910;35.562;2023-01-16T07:17:42;99539.63;;;20.42;35.31
73692;BME280;61996;49.910;35.562;2023-01-16T07:21:03;99552.34;;;20.58;35.14
73692;BME280;61996;49.910;35.562;2023-01-16T07:24:24;99552.56;;;20.46;35.21
73692;BME280;61996;49.910;35.562;2023-01-16T07:27:29;99551.59;;;20.47;35.32
73692;BME280;61996;49.910;35.562;2023-01-16T07:30:32;99539.47;;;20.43;35.30
73692;BME280;61996;49.910;35.562;2023-01-16T07:33:35;99553.03;;;20.60;35.26
73692;BME280;61996;49.910;35.562;2023-01-16T07:36:38;99563.78;;;20.50;35.27
73692;BME280;61996;49.910;35.562;2023-01-16T07:39:40;99561.06;;;20.60;35.17
73692;BME280;61996;49.910;35.562;2023-01-16T07:42:44;99563.19;;;20.56;35.18
73692;BME280;61996;49.910;35.562;2023-01-16T07:45:47;99559.16;;;20.52;35.40
73692;BME280;61996;49.910;35.562;2023-01-16T07:48:53;99555.25;;;20.46;36.79
73692;BME280;61996;49.910;35.562;2023-01-16T07:51:57;99560.91;;;20.34;37.12
73692;BME280;61996;49.910;35.562;2023-01-16T07:55:00;99561.66;;;20.26;37.33
73692;BME280;61996;49.910;35.562;2023-01-16T07:58:04;99555.78;;;20.22;36.66
73692;BME280;61996;49.910;35.562;2023-01-16T08:01:07;99557.59;;;20.22;36.77
73692;BME280;61996;49.910;35.562;2023-01-16T08:04:10;99558.44;;;20.22;36.59
73692;BME280;61996;49.910;35.562;2023-01-16T08:07:13;99551.34;;;20.13;36.63
73692;BME280;61996;49.910;35.562;2023-01-16T08:10:15;99548.13;;;20.10;36.70
73692;BME280;61996;49.910;35.562;2023-01-16T08:13:20;99544.06;;;20.06;36.60
73692;BME280;61996;49.910;35.562;2023-01-16T08:33:55;99537.78;;;19.69;36.90
73692;BME280;61996;49.910;35.562;2023-01-16T08:36:58;99534.53;;;19.76;36.34
73692;BME280;61996;49.910;35.562;2023-01-16T08:40:03;99536.91;;;19.79;35.98
73692;BME280;61996;49.910;35.562;2023-01-16T08:43:07;99528.00;;;19.88;36.62
73692;BME280;61996;49.910;35.562;2023-01-16T08:46:28;99522.47;;;19.99;36.56
73692;BME280;61996;49.910;35.562;2023-01-16T08:49:50;99522.13;;;20.12;36.31
73692;BME280;61996;49.910;35.562;2023-01-16T08:53:10;99522.59;;;20.25;36.38
73692;BME280;61996;49.910;35.562;2023-01-16T08:56:13;99517.63;;;20.30;36.18
73692;BME280;61996;49.910;35.562;2023-01-16T08:59:17;99515.88;;;20.21;36.31
73692;BME280;61996;49.910;35.562;2023-01-16T09:02:20;99518.25;;;20.24;36.26
73692;BME280;61996;49.910;35.562;2023-01-16T09:05:24;99506.66;;;20.33;35.72
73692;BME280;61996;49.910;35.562;2023-01-16T09:08:27;99504.84;;;20.34;35.70
73692;BME280;61996;49.910;35.562;2023-01-16T09:11:30;99493.53;;;20.40;35.59
73692;BME280;61996;49.910;35.562;2023-01-16T09:14:50;99490.31;;;20.46;35.50
73692;BME280;61996;49.910;35.562;2023-01-16T09:17:54;99493.09;;;20.44;35.55
73692;BME280;61996;49.910;35.562;2023-01-16T09:20:58;99494.53;;;20.39;35.68
73692;BME280;61996;49.910;35.562;2023-01-16T09:24:01;99488.50;;;20.37;36.26
73692;BME280;61996;49.910;35.562;2023-01-16T09:27:04;99482.47;;;20.35;36.31
73692;BME280;61996;49.910;35.562;2023-01-16T09:30:08;99480.19;;;20.40;36.52
73692;BME280;61996;49.910;35.562;2023-01-16T09:33:10;99476.97;;;20.36;36.47
73692;BME280;61996;49.910;35.562;2023-01-16T09:36:15;99481.63;;;20.34;36.04
73692;BME280;61996;49.910;35.562;2023-01-16T09:39:19;99487.22;;;20.41;36.33
73692;BME280;61996;49.910;35.562;2023-01-16T09:42:34;99473.84;;;20.41;36.44
73692;BME280;61996;49.910;35.562;2023-01-16T09:45:57;99471.34;;;20.57;35.62
73692;BME280;61996;49.910;35.562;2023-01-16T09:49:01;99466.78;;;20.67;35.77
73692;BME280;61996;49.910;35.562;2023-01-16T09:52:09;99472.72;;;20.61;35.94
73692;BME280;61996;49.910;35.562;2023-01-16T09:55:32;99457.53;;;20.62;35.77
73692;BME280;61996;49.910;35.562;2023-01-16T13:11:51;99424.13;;;17.67;37.32
73692;BME280;61996;49.910;35.562;2023-01-16T13:15:16;99426.31;;;17.92;36.85
73692;BME280;61996;49.910;35.562;2023-01-16T13:18:22;99415.41;;;17.95;36.73
73692;BME280;61996;49.910;35.562;2023-01-16T13:21:28;99420.88;;;18.03;36.87
73692;BME280;61996;49.910;35.562;2023-01-16T13:24:33;99430.97;;;18.19;36.99
73692;BME280;61996;49.910;35.562;2023-01-16T13:27:41;99439.38;;;18.24;37.27
73692;BME280;61996;49.910;35.562;2023-01-16T13:30:47;99432.22;;;18.34;36.40
73692;BME280;61996;49.910;35.562;2023-01-16T13:33:52;99440.63;;;18.49;36.63
73692;BME280;61996;49.910;35.562;2023-01-16T13:43:47;99434.63;;;18.67;36.16
73692;BME280;61996;49.910;35.562;2023-01-16T13:47:10;99431.81;;;18.68;36.55
73692;BME280;61996;49.910;35.562;2023-01-16T13:50:18;99437.41;;;18.75;36.26
73692;BME280;61996;49.910;35.562;2023-01-16T13:53:23;99432.91;;;18.75;36.33
73692;BME280;61996;49.910;35.562;2023-01-16T13:56:26;99441.31;;;18.80;36.09
73692;BME280;61996;49.910;35.562;2023-01-16T13:59:36;99423.22;;;18.84;36.35
73692;BME280;61996;49.910;35.562;2023-01-16T14:02:41;99425.59;;;18.87;36.06
73692;BME280;61996;49.910;35.562;2023-01-16T14:05:47;99424.72;;;18.96;35.83
73692;BME280;61996;49.910;35.562;2023-01-16T14:08:50;99416.00;;;19.04;35.87
73692;BME280;61996;49.910;35.562;2023-01-16T14:12:17;99420.50;;;19.03;35.98
73692;BME280;61996;49.910;35.562;2023-01-16T14:15:23;99421.59;;;19.10;35.67
73692;BME280;61996;49.910;35.562;2023-01-16T14:18:57;99423.00;;;19.14;35.86
73692;BME280;61996;49.910;35.562;2023-01-16T14:22:16;99418.34;;;19.16;35.95
73692;BME280;61996;49.910;35.562;2023-01-16T14:25:37;99424.13;;;19.12;35.79
73692;BME280;61996;49.910;35.562;2023-01-16T14:28:40;99419.03;;;19.18;35.93
73692;BME280;61996;49.910;35.562;2023-01-16T14:31:52;99414.28;;;19.22;35.63
73692;BME280;61996;49.910;35.562;2023-01-16T14:34:56;99416.38;;;19.18;35.83
73692;BME280;61996;49.910;35.562;2023-01-16T14:38:00;99419.44;;;19.24;35.84
73692;BME280;61996;49.910;35.562;2023-01-16T14:41:05;99416.75;;;19.33;35.40
73692;BME280;61996;49.910;35.562;2023-01-16T14:44:25;99411.97;;;19.37;35.58
73692;BME280;61996;49.910;35.562;2023-01-16T14:47:55;99418.13;;;19.37;35.38
73692;BME280;61996;49.910;35.562;2023-01-16T14:51:17;99431.03;;;19.42;35.50
73692;BME280;61996;49.910;35.562;2023-01-16T14:54:37;99427.97;;;19.37;35.55
73692;BME280;61996;49.910;35.562;2023-01-16T14:57:58;99427.31;;;19.53;35.16
73692;BME280;61996;49.910;35.562;2023-01-16T15:01:08;99435.88;;;19.56;35.54
73692;BME280;61996;49.910;35.562;2023-01-16T15:04:38;99431.66;;;19.54;36.13
73692;BME280;61996;49.910;35.562;2023-01-16T15:07:46;99437.69;;;19.65;35.83
73692;BME280;61996;49.910;35.562;2023-01-16T15:10:50;99435.44;;;19.61;36.20
73692;BME280;61996;49.910;35.562;2023-01-16T15:14:02;99428.94;;;19.73;36.11
73692;BME280;61996;49.910;35.562;2023-01-16T15:17:25;99424.19;;;19.67;36.26
73692;BME280;61996;49.910;35.562;2023-01-16T15:20:49;99433.13;;;19.76;36.12
73692;BME280;61996;49.910;35.562;2023-01-16T15:24:09;99424.50;;;19.64;36.47
73692;BME280;61996;49.910;35.562;2023-01-16T15:27:19;99433.50;;;19.63;36.46
73692;BME280;61996;49.910;35.562;2023-01-16T15:30:24;99423.66;;;19.54;36.72
73692;BME280;61996;49.910;35.562;2023-01-16T15:33:28;99430.97;;;19.52;36.77
73692;BME280;61996;49.910;35.562;2023-01-16T15:36:50;99422.03;;;19.43;36.90
73692;BME280;61996;49.910;35.562;2023-01-16T15:39:53;99415.47;;;19.37;36.80
73692;BME280;61996;49.910;35.562;2023-01-16T15:42:56;99417.28;;;19.37;36.83
73692;BME280;61996;49.910;35.562;2023-01-16T15:46:18;99417.03;;;19.30;36.82
73692;BME280;61996;49.910;35.562;2023-01-16T15:49:39;99412.44;;;19.23;37.13
73692;BME280;61996;49.910;35.562;2023-01-16T15:52:48;99411.88;;;19.19;37.18
73692;BME280;61996;49.910;35.562;2023-01-16T15:55:52;99403.03;;;19.18;36.88
73692;BME280;61996;49.910;35.562;2023-01-16T15:58:55;99407.41;;;19.20;37.07
73692;BME280;61996;49.910;35.562;2023-01-16T18:15:44;99416.28;;;17.65;36.94
73692;BME280;61996;49.910;35.562;2023-01-16T18:19:17;99406.00;;;17.91;36.58
73692;BME280;61996;49.910;35.562;2023-01-16T18:22:19;99406.56;;;18.04;36.44
73692;BME280;61996;49.910;35.562;2023-01-16T18:25:22;99411.34;;;18.11;36.18
73692;BME280;61996;49.910;35.562;2023-01-16T18:28:25;99405.59;;;18.34;36.09
73692;BME280;61996;49.910;35.562;2023-01-16T18:31:29;99409.38;;;18.32;35.94
73692;BME280;61996;49.910;35.562;2023-01-16T18:34:32;99399.69;;;18.41;35.96
73692;BME280;61996;49.910;35.562;2023-01-16T18:37:53;99398.72;;;18.51;35.96
73692;BME280;61996;49.910;35.562;2023-01-16T18:41:14;99394.78;;;18.55;35.90
73692;BME280;61996;49.910;35.562;2023-01-16T18:44:34;99407.97;;;18.67;35.69
73692;BME280;61996;49.910;35.562;2023-01-16T18:48:11;99403.50;;;18.67;35.60
73692;BME280;61996;49.910;35.562;2023-01-16T18:51:31;99407.09;;;18.76;35.49
73692;BME280;61996;49.910;35.562;2023-01-16T18:54:51;99402.50;;;18.78;35.50
73692;BME280;61996;49.910;35.562;2023-01-16T18:58:20;99401.91;;;18.84;35.60
73692;BME280;61996;49.910;35.562;2023-01-16T19:01:41;99398.97;;;18.87;35.68
73692;BME280;61996;49.910;35.562;2023-01-16T19:05:01;99399.50;;;18.90;35.42
73692;BME280;61996;49.910;35.562;2023-01-16T19:08:04;99400.91;;;18.95;35.30
73692;BME280;61996;49.910;35.562;2023-01-16T19:11:15;99395.41;;;18.96;35.27
73692;BME280;61996;49.910;35.562;2023-01-16T19:14:18;99395.84;;;19.01;35.18
73692;BME280;61996;49.910;35.562;2023-01-16T19:17:21;99390.50;;;19.01;35.48
73692;BME280;61996;49.910;35.562;2023-01-16T19:20:25;99408.16;;;19.02;35.51
73692;BME280;61996;49.910;35.562;2023-01-16T19:23:29;99403.25;;;19.07;35.41
73692;BME280;61996;49.910;35.562;2023-01-16T19:26:32;99416.56;;;19.07;35.34
73692;BME280;61996;49.910;35.562;2023-01-16T19:29:35;99404.94;;;19.08;35.43
73692;BME280;61996;49.910;35.562;2023-01-16T19:32:37;99394.66;;;19.13;35.46
73692;BME280;61996;49.910;35.562;2023-01-16T19:35:44;99397.03;;;19.16;35.27
73692;BME280;61996;49.910;35.562;2023-01-16T19:38:46;99401.41;;;19.08;35.61
73692;BME280;61996;49.910;35.562;2023-01-16T19:41:49;99396.25;;;19.06;35.56
73692;BME280;61996;49.910;35.562;2023-01-16T19:45:10;99398.19;;;19.04;35.69
73692;BME280;61996;49.910;35.562;2023-01-16T19:48:30;99395.00;;;19.01;35.68
73692;BME280;61996;49.910;35.562;2023-01-16T19:51:34;99394.59;;;18.96;35.71
73692;BME280;61996;49.910;35.562;2023-01-16T19:54:38;99389.66;;;19.01;35.79
73692;BME280;61996;49.910;35.562;2023-01-16T19:57:41;99387.16;;;18.89;35.98
73692;BME280;61996;49.910;35.562;2023-01-16T20:00:43;99399.50;;;18.90;35.86
73692;BME280;61996;49.910;35.562;2023-01-16T20:04:03;99390.97;;;18.87;35.99
73692;BME280;61996;49.910;35.562;2023-01-16T20:07:08;99397.88;;;18.80;36.04
73692;BME280;61996;49.910;35.562;2023-01-16T20:10:11;99392.81;;;18.77;36.13
73692;BME280;61996;49.910;35.562;2023-01-16T20:13:14;99391.97;;;18.76;36.07
73692;BME280;61996;49.910;35.562;2023-01-16T20:16:17;99390.44;;;18.74;36.05
73692;BME280;61996;49.910;35.562;2023-01-16T20:19:20;99388.34;;;18.68;36.25
73692;BME280;61996;49.910;35.562;2023-01-16T20:22:24;99385.53;;;18.69;36.18
73692;BME280;61996;49.910;35.562;2023-01-16T20:25:36;99387.78;;;18.64;36.15
73692;BME280;61996;49.910;35.562;2023-01-16T20:28:39;99386.22;;;18.61;36.33
73692;BME280;61996;49.910;35.562;2023-01-16T20:31:43;99390.16;;;18.57;36.21
73692;BME280;61996;49.910;35.562;2023-01-16T20:34:46;99385.22;;;18.62;36.23
73692;BME280;61996;49.910;35.562;2023-01-16T20:37:50;99379.06;;;18.62;36.06
73692;BME280;61996;49.910;35.562;2023-01-16T20:40:53;99381.03;;;18.70;36.08
73692;BME280;61996;49.910;35.562;2023-01-16T20:43:56;99382.16;;;18.77;35.93
73692;BME280;61996;49.910;35.562;2023-01-16T20:47:17;99374.56;;;18.92;35.48
73692;BME280;61996;49.910;35.562;2023-01-16T20:50:20;99383.78;;;18.97;35.43
73692;BME280;61996;49.910;35.562;2023-01-16T20:53:24;99377.84;;;19.03;35.38
73692;BME280;61996;49.910;35.562;2023-01-16T20:56:27;99376.88;;;19.04;35.44
73692;BME280;61996;49.910;35.562;2023-01-16T20:59:30;99385.00;;;19.12;35.19
73692;BME280;61996;49.910;35.562;2023-01-16T21:02:34;99394.09;;;19.10;35.43
73692;BME280;61996;49.910;35.562;2023-01-16T21:05:37;99386.69;;;19.13;35.28
73692;BME280;61996;49.910;35.562;2023-01-16T21:08:43;99387.06;;;19.18;35.27
73692;BME280;61996;49.910;35.562;2023-01-16T21:11:46;99390.72;;;19.17;35.44
73692;BME280;61996;49.910;35.562;2023-01-16T21:15:07;99380.31;;;19.24;35.26
73692;BME280;61996;49.910;35.562;2023-01-16T21:18:10;99382.69;;;19.27;35.19
73692;BME280;61996;49.910;35.562;2023-01-16T21:21:30;99380.44;;;19.23;35.20
73692;BME280;61996;49.910;35.562;2023-01-16T21:24:53;99371.72;;;19.30;35.18
73692;BME280;61996;49.910;35.562;2023-01-16T21:27:58;99373.53;;;19.30;35.28
73692;BME280;61996;49.910;35.562;2023-01-16T21:31:05;99375.06;;;19.32;35.24
73692;BME280;61996;49.910;35.562;2023-01-16T21:34:08;99366.47;;;19.38;35.17
73692;BME280;61996;49.910;35.562;2023-01-16T21:37:12;99375.78;;;19.34;35.22
73692;BME280;61996;49.910;35.562;2023-01-16T21:40:17;99385.69;;;19.42;34.95
73692;BME280;61996;49.910;35.562;2023-01-16T21:43:20;99388.06;;;19.45;35.12
73692;BME280;61996;49.910;35.562;2023-01-16T21:46:41;99383.72;;;19.44;34.94
73692;BME280;61996;49.910;35.562;2023-01-16T21:49:43;99375.28;;;19.49;35.11
73692;BME280;61996;49.910;35.562;2023-01-16T21:52:46;99382.56;;;19.47;35.00
73692;BME280;61996;49.910;35.562;2023-01-16T21:55:51;99385.22;;;19.47;35.18
73692;BME280;61996;49.910;35.562;2023-01-16T21:58:55;99383.66;;;19.54;35.00
73692;BME280;61996;49.910;35.562;2023-01-16T22:01:58;99381.28;;;19.51;34.92
73692;BME280;61996;49.910;35.562;2023-01-16T22:05:01;99376.94;;;19.50;35.02
73692;BME280;61996;49.910;35.562;2023-01-16T22:08:04;99373.56;;;19.57;35.01
73692;BME280;61996;49.910;35.562;2023-01-16T22:11:08;99376.63;;;19.53;34.98
73692;BME280;61996;49.910;35.562;2023-01-16T22:14:29;99384.06;;;19.59;34.86